sensor_id;sensor_type;location;lat;lon;timestamp;temperature;humidity
3986;DHT22;2007;48.750;9.278;2023-07-31T00:02:14;22.90;51.40
3986;DHT22;2007;48.750;9.278;2023-07-31T00:04:42;22.90;51.40
3986;DHT22;2007;48.750;9.278;2023-07-31T00:07:11;22.90;51.40
3986;DHT22;2007;48.750;9.278;2023-07-31T00:09:39;23.00;51.50
3986;DHT22;2007;48.750;9.278;2023-07-31T00:12:08;23.00;51.60
3986;DHT22;2007;48.750;9.278;2023-07-31T00:14:36;22.90;51.50
3986;DHT22;2007;48.750;9.278;2023-07-31T00:17:04;23.00;51.50
3986;DHT22;2007;48.750;9.278;2023-07-31T00:19:32;23.00;51.50
3986;DHT22;2007;48.750;9.278;2023-07-31T00:22:00;22.90;51.40
3986;DHT22;2007;48.750;9.278;2023-07-31T00:24:29;23.00;51.50
3986;DHT22;2007;48.750;9.278;2023-07-31T00:26:57;23.00;51.50
3986;DHT22;2007;48.750;9.278;2023-07-31T00:29:25;22.90;51.40
3986;DHT22;2007;48.750;9.278;2023-07-31T00:31:53;23.00;51.50
3986;DHT22;2007;48.750;9.278;2023-07-31T00:34:21;22.90;51.40
3986;DHT22;2007;48.750;9.278;2023-07-31T00:36:49;22.90;51.40
3986;DHT22;2007;48.750;9.278;2023-07-31T00:39:17;22.90;51.40
3986;DHT22;2007;48.750;9.278;2023-07-31T00:41:46;23.00;51.50
3986;DHT22;2007;48.750;9.278;2023-07-31T00:44:14;23.00;51.50
3986;DHT22;2007;48.750;9.278;2023-07-31T00:46:42;22.90;51.40
3986;DHT22;2007;48.750;9.278;2023-07-31T00:49:11;22.90;51.40
3986;DHT22;2007;48.750;9.278;2023-07-31T00:51:39;22.90;51.40
3986;DHT22;2007;48.750;9.278;2023-07-31T00:54:07;22.90;51.40
3986;DHT22;2007;48.750;9.278;2023-07-31T00:56:36;22.90;51.40
3986;DHT22;2007;48.750;9.278;2023-07-31T00:59:06;22.90;51.40
3986;DHT22;2007;48.750;9.278;2023-07-31T01:01:34;22.90;51.40
3986;DHT22;2007;48.750;9.278;2023-07-31T01:04:02;23.00;51.50
3986;DHT22;2007;48.750;9.278;2023-07-31T01:06:38;22.90;51.40
3986;DHT22;2007;48.750;9.278;2023-07-31T01:09:16;22.90;51.40
3986;DHT22;2007;48.750;9.278;2023-07-31T01:11:50;22.90;51.40
3986;DHT22;2007;48.750;9.278;2023-07-31T01:14:21;22.90;51.40
3986;DHT22;2007;48.750;9.278;2023-07-31T01:16:49;22.90;51.40
3986;DHT22;2007;48.750;9.278;2023-07-31T01:19:19;23.00;51.50
3986;DHT22;2007;48.750;9.278;2023-07-31T01:22:07;22.90;51.40
3986;DHT22;2007;48.750;9.278;2023-07-31T01:24:48;22.90;51.40
3986;DHT22;2007;48.750;9.278;2023-07-31T01:27:24;22.90;51.40
3986;DHT22;2007;48.750;9.278;2023-07-31T01:30:00;22.90;51.40
3986;DHT22;2007;48.750;9.278;2023-07-31T01:32:28;22.90;51.40
3986;DHT22;2007;48.750;9.278;2023-07-31T01:34:57;22.90;51.40
3986;DHT22;2007;48.750;9.278;2023-07-31T01:37:28;23.00;52.10
3986;DHT22;2007;48.750;9.278;2023-07-31T01:39:56;22.90;51.40
3986;DHT22;2007;48.750;9.278;2023-07-31T01:42:25;22.90;51.30
3986;DHT22;2007;48.750;9.278;2023-07-31T01:44:53;22.90;51.40
3986;DHT22;2007;48.750;9.278;2023-07-31T01:47:21;22.90;51.40
3986;DHT22;2007;48.750;9.278;2023-07-31T01:49:50;22.90;51.40
3986;DHT22;2007;48.750;9.278;2023-07-31T01:52:18;22.90;51.40
3986;DHT22;2007;48.750;9.278;2023-07-31T01:54:46;22.90;51.30
3986;DHT22;2007;48.750;9.278;2023-07-31T01:57:14;22.90;51.40
3986;DHT22;2007;48.750;9.278;2023-07-31T01:59:43;22.90;51.40
3986;DHT22;2007;48.750;9.278;2023-07-31T02:02:11;22.90;51.40
3986;DHT22;2007;48.750;9.278;2023-07-31T02:04:39;22.90;51.40
3986;DHT22;2007;48.750;9.278;2023-07-31T02:07:07;22.90;51.40
3986;DHT22;2007;48.750;9.278;2023-07-31T02:09:35;22.90;52.00
3986;DHT22;2007;48.750;9.278;2023-07-31T02:12:03;22.90;51.40
3986;DHT22;2007;48.750;9.278;2023-07-31T02:14:31;22.90;51.40
3986;DHT22;2007;48.750;9.278;2023-07-31T02:17:01;22.90;51.30
3986;DHT22;2007;48.750;9.278;2023-07-31T02:19:29;22.90;51.40
3986;DHT22;2007;48.750;9.278;2023-07-31T02:21:57;22.90;51.30
3986;DHT22;2007;48.750;9.278;2023-07-31T02:24:24;22.90;51.30
3986;DHT22;2007;48.750;9.278;2023-07-31T02:26:52;22.90;51.30
3986;DHT22;2007;48.750;9.278;2023-07-31T02:29:20;22.90;51.40
3986;DHT22;2007;48.750;9.278;2023-07-31T02:31:48;22.90;51.30
3986;DHT22;2007;48.750;9.278;2023-07-31T02:34:18;22.90;51.40
3986;DHT22;2007;48.750;9.278;2023-07-31T02:36:46;22.90;51.40
3986;DHT22;2007;48.750;9.278;2023-07-31T02:39:14;22.90;51.40
3986;DHT22;2007;48.750;9.278;2023-07-31T02:41:41;22.90;51.30
3986;DHT22;2007;48.750;9.278;2023-07-31T02:44:09;22.90;51.30
3986;DHT22;2007;48.750;9.278;2023-07-31T02:46:40;22.90;51.30
3986;DHT22;2007;48.750;9.278;2023-07-31T02:49:08;22.90;51.40
3986;DHT22;2007;48.750;9.278;2023-07-31T02:51:37;22.90;51.40
3986;DHT22;2007;48.750;9.278;2023-07-31T02:54:05;22.90;51.40
3986;DHT22;2007;48.750;9.278;2023-07-31T02:56:33;22.90;51.30
3986;DHT22;2007;48.750;9.278;2023-07-31T02:59:01;22.90;51.30
3986;DHT22;2007;48.750;9.278;2023-07-31T03:01:29;22.90;51.40
3986;DHT22;2007;48.750;9.278;2023-07-31T03:03:57;22.90;51.30
3986;DHT22;2007;48.750;9.278;2023-07-31T03:06:25;22.90;51.30
3986;DHT22;2007;48.750;9.278;2023-07-31T03:08:55;22.90;51.40
3986;DHT22;2007;48.750;9.278;2023-07-31T03:11:23;22.90;51.30
3986;DHT22;2007;48.750;9.278;2023-07-31T03:13:51;22.90;51.30
3986;DHT22;2007;48.750;9.278;2023-07-31T03:16:19;22.90;51.30
3986;DHT22;2007;48.750;9.278;2023-07-31T03:18:47;22.90;51.40
3986;DHT22;2007;48.750;9.278;2023-07-31T03:21:15;22.90;51.30
3986;DHT22;2007;48.750;9.278;2023-07-31T03:23:42;22.90;51.40
3986;DHT22;2007;48.750;9.278;2023-07-31T03:26:12;22.90;51.60
3986;DHT22;2007;48.750;9.278;2023-07-31T03:28:40;22.90;51.40
3986;DHT22;2007;48.750;9.278;2023-07-31T03:31:08;22.90;51.40
3986;DHT22;2007;48.750;9.278;2023-07-31T03:33:36;22.90;51.40
3986;DHT22;2007;48.750;9.278;2023-07-31T03:36:04;22.90;51.40
3986;DHT22;2007;48.750;9.278;2023-07-31T03:38:33;22.90;51.30
3986;DHT22;2007;48.750;9.278;2023-07-31T03:41:01;22.90;51.40
3986;DHT22;2007;48.750;9.278;2023-07-31T03:43:30;22.90;51.40
3986;DHT22;2007;48.750;9.278;2023-07-31T03:46:00;22.90;51.40
3986;DHT22;2007;48.750;9.278;2023-07-31T03:48:29;22.90;51.40
3986;DHT22;2007;48.750;9.278;2023-07-31T03:50:57;22.90;51.30
3986;DHT22;2007;48.750;9.278;2023-07-31T03:53:25;22.90;51.40
3986;DHT22;2007;48.750;9.278;2023-07-31T03:55:52;22.90;51.30
3986;DHT22;2007;48.750;9.278;2023-07-31T03:58:20;22.90;51.40
3986;DHT22;2007;48.750;9.278;2023-07-31T04:00:50;22.90;51.30
3986;DHT22;2007;48.750;9.278;2023-07-31T04:03:18;22.80;51.30
3986;DHT22;2007;48.750;9.278;2023-07-31T04:05:46;22.80;51.20
3986;DHT22;2007;48.750;9.278;2023-07-31T04:08:13;22.80;51.30
3986;DHT22;2007;48.750;9.278;2023-07-31T04:10:41;22.90;51.40
3986;DHT22;2007;48.750;9.278;2023-07-31T04:13:09;22.90;51.40
3986;DHT22;2007;48.750;9.278;2023-07-31T04:15:37;22.90;51.40
3986;DHT22;2007;48.750;9.278;2023-07-31T04:18:06;22.80;51.30
3986;DHT22;2007;48.750;9.278;2023-07-31T04:20:34;22.80;51.30
3986;DHT22;2007;48.750;9.278;2023-07-31T04:23:02;22.80;51.30
3986;DHT22;2007;48.750;9.278;2023-07-31T04:25:30;22.80;51.30
3986;DHT22;2007;48.750;9.278;2023-07-31T04:27:58;22.80;51.30
3986;DHT22;2007;48.750;9.278;2023-07-31T04:30:26;22.80;51.30
3986;DHT22;2007;48.750;9.278;2023-07-31T04:32:54;22.80;51.30
3986;DHT22;2007;48.750;9.278;2023-07-31T04:35:24;22.80;51.30
3986;DHT22;2007;48.750;9.278;2023-07-31T04:37:52;22.80;51.30
3986;DHT22;2007;48.750;9.278;2023-07-31T04:40:20;22.80;51.30
3986;DHT22;2007;48.750;9.278;2023-07-31T04:42:48;22.80;51.30
3986;DHT22;2007;48.750;9.278;2023-07-31T04:45:16;22.80;51.30
3986;DHT22;2007;48.750;9.278;2023-07-31T04:47:44;22.80;51.30
3986;DHT22;2007;48.750;9.278;2023-07-31T04:50:12;22.80;51.30
3986;DHT22;2007;48.750;9.278;2023-07-31T04:52:41;22.80;51.30
3986;DHT22;2007;48.750;9.278;2023-07-31T04:55:09;22.80;51.30
3986;DHT22;2007;48.750;9.278;2023-07-31T04:57:37;22.80;51.30
3986;DHT22;2007;48.750;9.278;2023-07-31T05:00:07;22.80;51.30
3986;DHT22;2007;48.750;9.278;2023-07-31T05:02:35;22.80;51.20
3986;DHT22;2007;48.750;9.278;2023-07-31T05:05:03;22.80;51.20
3986;DHT22;2007;48.750;9.278;2023-07-31T05:07:31;22.80;51.30
3986;DHT22;2007;48.750;9.278;2023-07-31T05:10:00;22.80;51.30
3986;DHT22;2007;48.750;9.278;2023-07-31T05:12:28;22.80;51.20
3986;DHT22;2007;48.750;9.278;2023-07-31T05:14:56;22.80;51.30
3986;DHT22;2007;48.750;9.278;2023-07-31T05:17:24;22.80;51.20
3986;DHT22;2007;48.750;9.278;2023-07-31T05:19:52;22.80;51.30
3986;DHT22;2007;48.750;9.278;2023-07-31T05:22:20;22.70;51.20
3986;DHT22;2007;48.750;9.278;2023-07-31T05:24:48;22.80;51.30
3986;DHT22;2007;48.750;9.278;2023-07-31T05:27:17;22.80;51.30
3986;DHT22;2007;48.750;9.278;2023-07-31T05:29:46;22.80;51.30
3986;DHT22;2007;48.750;9.278;2023-07-31T05:32:14;22.80;51.30
3986;DHT22;2007;48.750;9.278;2023-07-31T05:34:42;22.80;51.30
3986;DHT22;2007;48.750;9.278;2023-07-31T05:37:10;22.70;51.20
3986;DHT22;2007;48.750;9.278;2023-07-31T05:39:38;22.80;51.20
3986;DHT22;2007;48.750;9.278;2023-07-31T05:42:06;22.70;51.20
3986;DHT22;2007;48.750;9.278;2023-07-31T05:44:36;22.80;51.30
3986;DHT22;2007;48.750;9.278;2023-07-31T05:47:04;22.70;51.20
3986;DHT22;2007;48.750;9.278;2023-07-31T05:49:32;22.80;51.20
3986;DHT22;2007;48.750;9.278;2023-07-31T05:52:00;22.70;51.20
3986;DHT22;2007;48.750;9.278;2023-07-31T05:54:28;22.80;51.30
3986;DHT22;2007;48.750;9.278;2023-07-31T05:56:56;22.70;51.20
3986;DHT22;2007;48.750;9.278;2023-07-31T05:59:24;22.80;51.30
3986;DHT22;2007;48.750;9.278;2023-07-31T06:01:53;22.80;51.30
3986;DHT22;2007;48.750;9.278;2023-07-31T06:04:21;22.80;51.30
3986;DHT22;2007;48.750;9.278;2023-07-31T06:06:52;22.70;51.20
3986;DHT22;2007;48.750;9.278;2023-07-31T06:09:20;22.80;51.30
3986;DHT22;2007;48.750;9.278;2023-07-31T06:11:48;22.80;51.30
3986;DHT22;2007;48.750;9.278;2023-07-31T06:14:16;22.70;51.20
3986;DHT22;2007;48.750;9.278;2023-07-31T06:16:44;22.70;51.20
3986;DHT22;2007;48.750;9.278;2023-07-31T06:19:13;22.70;51.30
3986;DHT22;2007;48.750;9.278;2023-07-31T06:21:41;22.70;51.30
3986;DHT22;2007;48.750;9.278;2023-07-31T06:24:10;22.70;51.30
3986;DHT22;2007;48.750;9.278;2023-07-31T06:26:39;22.70;51.30
3986;DHT22;2007;48.750;9.278;2023-07-31T06:29:08;22.70;51.30
3986;DHT22;2007;48.750;9.278;2023-07-31T06:31:37;22.70;51.30
3986;DHT22;2007;48.750;9.278;2023-07-31T06:34:05;22.70;51.20
3986;DHT22;2007;48.750;9.278;2023-07-31T06:36:34;22.70;51.30
3986;DHT22;2007;48.750;9.278;2023-07-31T06:39:02;22.70;51.30
3986;DHT22;2007;48.750;9.278;2023-07-31T06:41:30;22.70;51.20
3986;DHT22;2007;48.750;9.278;2023-07-31T06:43:58;22.70;51.30
3986;DHT22;2007;48.750;9.278;2023-07-31T06:46:26;22.70;51.30
3986;DHT22;2007;48.750;9.278;2023-07-31T06:48:54;22.70;51.30
3986;DHT22;2007;48.750;9.278;2023-07-31T06:51:22;22.70;51.30
3986;DHT22;2007;48.750;9.278;2023-07-31T06:53:51;22.70;51.30
3986;DHT22;2007;48.750;9.278;2023-07-31T06:56:21;22.70;51.30
3986;DHT22;2007;48.750;9.278;2023-07-31T06:58:49;22.70;51.30
3986;DHT22;2007;48.750;9.278;2023-07-31T07:01:17;22.70;51.30
3986;DHT22;2007;48.750;9.278;2023-07-31T07:03:45;22.70;51.30
3986;DHT22;2007;48.750;9.278;2023-07-31T07:06:12;22.60;51.20
3986;DHT22;2007;48.750;9.278;2023-07-31T07:08:40;22.70;51.30
3986;DHT22;2007;48.750;9.278;2023-07-31T07:11:10;22.60;51.20
3986;DHT22;2007;48.750;9.278;2023-07-31T07:13:38;22.60;51.20
3986;DHT22;2007;48.750;9.278;2023-07-31T07:16:06;22.60;51.20
3986;DHT22;2007;48.750;9.278;2023-07-31T07:18:33;22.70;51.30
3986;DHT22;2007;48.750;9.278;2023-07-31T07:21:05;22.70;51.30
3986;DHT22;2007;48.750;9.278;2023-07-31T07:23:33;22.70;51.30
3986;DHT22;2007;48.750;9.278;2023-07-31T07:26:00;22.60;51.30
3986;DHT22;2007;48.750;9.278;2023-07-31T07:28:30;22.70;51.30
3986;DHT22;2007;48.750;9.278;2023-07-31T07:30:58;22.60;51.20
3986;DHT22;2007;48.750;9.278;2023-07-31T07:33:26;22.70;51.30
3986;DHT22;2007;48.750;9.278;2023-07-31T07:35:54;22.70;51.40
3986;DHT22;2007;48.750;9.278;2023-07-31T07:38:22;22.60;51.20
3986;DHT22;2007;48.750;9.278;2023-07-31T07:40:51;22.70;51.40
3986;DHT22;2007;48.750;9.278;2023-07-31T07:43:20;22.70;51.40
3986;DHT22;2007;48.750;9.278;2023-07-31T07:45:49;22.60;51.30
3986;DHT22;2007;48.750;9.278;2023-07-31T07:48:17;22.60;51.20
3986;DHT22;2007;48.750;9.278;2023-07-31T07:50:45;22.70;51.30
3986;DHT22;2007;48.750;9.278;2023-07-31T07:53:13;22.60;51.20
3986;DHT22;2007;48.750;9.278;2023-07-31T07:55:41;22.60;51.30
3986;DHT22;2007;48.750;9.278;2023-07-31T07:58:09;22.60;51.30
3986;DHT22;2007;48.750;9.278;2023-07-31T08:00:37;22.70;51.40
3986;DHT22;2007;48.750;9.278;2023-07-31T08:03:07;22.60;51.30
3986;DHT22;2007;48.750;9.278;2023-07-31T08:05:35;22.60;51.30
3986;DHT22;2007;48.750;9.278;2023-07-31T08:08:03;22.60;51.30
3986;DHT22;2007;48.750;9.278;2023-07-31T08:10:31;22.70;51.40
3986;DHT22;2007;48.750;9.278;2023-07-31T08:12:59;22.60;51.30
3986;DHT22;2007;48.750;9.278;2023-07-31T08:15:27;22.60;51.30
3986;DHT22;2007;48.750;9.278;2023-07-31T08:17:54;22.60;52.00
3986;DHT22;2007;48.750;9.278;2023-07-31T08:20:24;22.70;51.40
3986;DHT22;2007;48.750;9.278;2023-07-31T08:22:54;22.60;51.30
3986;DHT22;2007;48.750;9.278;2023-07-31T08:25:22;22.60;51.30
3986;DHT22;2007;48.750;9.278;2023-07-31T08:27:49;22.60;51.30
3986;DHT22;2007;48.750;9.278;2023-07-31T08:30:19;22.60;51.30
3986;DHT22;2007;48.750;9.278;2023-07-31T08:32:49;22.60;51.30
3986;DHT22;2007;48.750;9.278;2023-07-31T08:35:17;22.60;51.40
3986;DHT22;2007;48.750;9.278;2023-07-31T08:37:47;22.60;51.40
3986;DHT22;2007;48.750;9.278;2023-07-31T08:40:15;22.60;51.40
3986;DHT22;2007;48.750;9.278;2023-07-31T08:42:44;22.60;51.40
3986;DHT22;2007;48.750;9.278;2023-07-31T08:45:14;22.60;51.40
3986;DHT22;2007;48.750;9.278;2023-07-31T08:47:45;22.60;51.40
3986;DHT22;2007;48.750;9.278;2023-07-31T08:50:15;22.60;51.40
3986;DHT22;2007;48.750;9.278;2023-07-31T08:52:45;22.60;51.40
3986;DHT22;2007;48.750;9.278;2023-07-31T08:55:14;22.60;51.40
3986;DHT22;2007;48.750;9.278;2023-07-31T08:57:43;22.60;51.40
3986;DHT22;2007;48.750;9.278;2023-07-31T09:00:11;22.60;51.40
3986;DHT22;2007;48.750;9.278;2023-07-31T09:02:45;22.60;51.40
3986;DHT22;2007;48.750;9.278;2023-07-31T09:05:14;22.60;51.40
3986;DHT22;2007;48.750;9.278;2023-07-31T09:07:46;22.70;51.50
3986;DHT22;2007;48.750;9.278;2023-07-31T09:10:16;22.60;51.40
3986;DHT22;2007;48.750;9.278;2023-07-31T09:12:44;22.60;51.40
3986;DHT22;2007;48.750;9.278;2023-07-31T09:15:13;22.60;51.40
3986;DHT22;2007;48.750;9.278;2023-07-31T09:17:59;22.60;51.40
3986;DHT22;2007;48.750;9.278;2023-07-31T09:20:28;22.60;51.40
3986;DHT22;2007;48.750;9.278;2023-07-31T09:22:56;22.60;51.40
3986;DHT22;2007;48.750;9.278;2023-07-31T09:25:26;22.60;51.40
3986;DHT22;2007;48.750;9.278;2023-07-31T09:27:57;22.60;51.40
3986;DHT22;2007;48.750;9.278;2023-07-31T09:30:26;22.60;51.40
3986;DHT22;2007;48.750;9.278;2023-07-31T09:33:01;22.60;51.40
3986;DHT22;2007;48.750;9.278;2023-07-31T09:35:31;22.60;51.40
3986;DHT22;2007;48.750;9.278;2023-07-31T09:38:00;22.60;51.40
3986;DHT22;2007;48.750;9.278;2023-07-31T09:40:32;22.60;51.40
3986;DHT22;2007;48.750;9.278;2023-07-31T09:43:03;22.60;51.40
3986;DHT22;2007;48.750;9.278;2023-07-31T09:45:35;22.60;51.40
3986;DHT22;2007;48.750;9.278;2023-07-31T09:48:08;22.60;51.40
3986;DHT22;2007;48.750;9.278;2023-07-31T09:50:38;22.60;51.40
3986;DHT22;2007;48.750;9.278;2023-07-31T09:53:06;22.60;51.40
3986;DHT22;2007;48.750;9.278;2023-07-31T09:55:37;22.60;51.40
3986;DHT22;2007;48.750;9.278;2023-07-31T09:58:07;22.60;51.40
3986;DHT22;2007;48.750;9.278;2023-07-31T10:00:35;22.60;51.40
3986;DHT22;2007;48.750;9.278;2023-07-31T10:03:05;22.60;51.40
3986;DHT22;2007;48.750;9.278;2023-07-31T10:05:35;22.60;51.40
3986;DHT22;2007;48.750;9.278;2023-07-31T10:08:04;22.60;51.40
3986;DHT22;2007;48.750;9.278;2023-07-31T10:10:36;22.60;51.50
3986;DHT22;2007;48.750;9.278;2023-07-31T10:13:05;22.60;51.40
3986;DHT22;2007;48.750;9.278;2023-07-31T10:15:34;22.60;51.40
3986;DHT22;2007;48.750;9.278;2023-07-31T10:18:06;22.60;51.50
3986;DHT22;2007;48.750;9.278;2023-07-31T10:20:34;22.60;51.40
3986;DHT22;2007;48.750;9.278;2023-07-31T10:23:03;22.60;51.50
3986;DHT22;2007;48.750;9.278;2023-07-31T10:25:32;22.60;51.40
3986;DHT22;2007;48.750;9.278;2023-07-31T10:28:02;22.60;51.40
3986;DHT22;2007;48.750;9.278;2023-07-31T10:30:32;22.60;51.40
3986;DHT22;2007;48.750;9.278;2023-07-31T10:33:02;22.60;51.40
3986;DHT22;2007;48.750;9.278;2023-07-31T10:35:30;22.60;51.40
3986;DHT22;2007;48.750;9.278;2023-07-31T10:38:09;22.60;51.50
3986;DHT22;2007;48.750;9.278;2023-07-31T10:40:38;22.60;51.40
3986;DHT22;2007;48.750;9.278;2023-07-31T10:43:08;22.60;51.40
3986;DHT22;2007;48.750;9.278;2023-07-31T10:45:39;22.60;51.50
3986;DHT22;2007;48.750;9.278;2023-07-31T10:48:13;22.60;51.50
3986;DHT22;2007;48.750;9.278;2023-07-31T10:50:47;22.60;51.50
3986;DHT22;2007;48.750;9.278;2023-07-31T10:53:23;22.60;51.50
3986;DHT22;2007;48.750;9.278;2023-07-31T10:55:51;22.60;51.50
3986;DHT22;2007;48.750;9.278;2023-07-31T10:58:21;22.60;51.50
3986;DHT22;2007;48.750;9.278;2023-07-31T11:00:49;22.60;51.40
3986;DHT22;2007;48.750;9.278;2023-07-31T11:03:19;22.60;51.50
3986;DHT22;2007;48.750;9.278;2023-07-31T11:05:53;22.60;51.50
3986;DHT22;2007;48.750;9.278;2023-07-31T11:08:23;22.60;51.50
3986;DHT22;2007;48.750;9.278;2023-07-31T11:11:05;22.60;51.50
3986;DHT22;2007;48.750;9.278;2023-07-31T11:13:41;22.60;51.50
3986;DHT22;2007;48.750;9.278;2023-07-31T11:16:10;22.60;51.50
3986;DHT22;2007;48.750;9.278;2023-07-31T11:18:41;22.60;51.50
3986;DHT22;2007;48.750;9.278;2023-07-31T11:21:12;22.60;51.50
3986;DHT22;2007;48.750;9.278;2023-07-31T11:23:41;22.60;51.50
3986;DHT22;2007;48.750;9.278;2023-07-31T11:26:09;22.60;51.50
3986;DHT22;2007;48.750;9.278;2023-07-31T11:28:39;22.60;51.50
3986;DHT22;2007;48.750;9.278;2023-07-31T11:31:10;22.60;51.50
3986;DHT22;2007;48.750;9.278;2023-07-31T11:33:38;22.60;51.40
3986;DHT22;2007;48.750;9.278;2023-07-31T11:36:10;22.60;51.40
3986;DHT22;2007;48.750;9.278;2023-07-31T11:38:41;22.60;51.40
3986;DHT22;2007;48.750;9.278;2023-07-31T11:41:09;22.60;51.40
3986;DHT22;2007;48.750;9.278;2023-07-31T11:43:38;22.60;51.50
3986;DHT22;2007;48.750;9.278;2023-07-31T11:46:06;22.60;51.40
3986;DHT22;2007;48.750;9.278;2023-07-31T11:48:36;22.60;51.40
3986;DHT22;2007;48.750;9.278;2023-07-31T11:51:05;22.60;51.50
3986;DHT22;2007;48.750;9.278;2023-07-31T11:53:38;22.60;51.50
3986;DHT22;2007;48.750;9.278;2023-07-31T11:56:07;22.60;51.40
3986;DHT22;2007;48.750;9.278;2023-07-31T11:58:41;22.60;51.40
3986;DHT22;2007;48.750;9.278;2023-07-31T12:01:11;22.60;51.50
3986;DHT22;2007;48.750;9.278;2023-07-31T12:03:42;22.60;51.40
3986;DHT22;2007;48.750;9.278;2023-07-31T12:06:10;22.60;51.40
3986;DHT22;2007;48.750;9.278;2023-07-31T12:08:38;22.60;51.40
3986;DHT22;2007;48.750;9.278;2023-07-31T12:11:09;22.60;51.40
3986;DHT22;2007;48.750;9.278;2023-07-31T12:13:39;22.60;51.40
3986;DHT22;2007;48.750;9.278;2023-07-31T12:16:06;22.60;51.40
3986;DHT22;2007;48.750;9.278;2023-07-31T12:18:36;22.60;51.50
3986;DHT22;2007;48.750;9.278;2023-07-31T12:21:06;22.60;51.50
3986;DHT22;2007;48.750;9.278;2023-07-31T12:23:35;22.60;51.50
3986;DHT22;2007;48.750;9.278;2023-07-31T12:26:05;22.60;51.50
3986;DHT22;2007;48.750;9.278;2023-07-31T12:28:37;22.60;51.50
3986;DHT22;2007;48.750;9.278;2023-07-31T12:31:08;22.60;51.50
3986;DHT22;2007;48.750;9.278;2023-07-31T12:33:38;22.60;51.50
3986;DHT22;2007;48.750;9.278;2023-07-31T12:36:08;22.60;51.50
3986;DHT22;2007;48.750;9.278;2023-07-31T12:38:36;22.50;51.50
3986;DHT22;2007;48.750;9.278;2023-07-31T12:41:05;22.60;51.50
3986;DHT22;2007;48.750;9.278;2023-07-31T12:43:33;22.60;51.50
3986;DHT22;2007;48.750;9.278;2023-07-31T12:46:01;22.60;51.50
3986;DHT22;2007;48.750;9.278;2023-07-31T12:48:31;22.60;51.50
3986;DHT22;2007;48.750;9.278;2023-07-31T12:51:00;22.60;51.50
3986;DHT22;2007;48.750;9.278;2023-07-31T12:53:28;22.60;51.50
3986;DHT22;2007;48.750;9.278;2023-07-31T12:55:56;22.60;51.50
3986;DHT22;2007;48.750;9.278;2023-07-31T12:58:24;22.60;51.50
3986;DHT22;2007;48.750;9.278;2023-07-31T13:00:52;22.60;51.50
3986;DHT22;2007;48.750;9.278;2023-07-31T13:03:20;22.60;51.50
3986;DHT22;2007;48.750;9.278;2023-07-31T13:05:50;22.60;51.50
3986;DHT22;2007;48.750;9.278;2023-07-31T13:08:19;22.60;51.50
3986;DHT22;2007;48.750;9.278;2023-07-31T13:10:47;22.60;51.50
3986;DHT22;2007;48.750;9.278;2023-07-31T13:13:15;22.60;51.50
3986;DHT22;2007;48.750;9.278;2023-07-31T13:15:43;22.60;51.50
3986;DHT22;2007;48.750;9.278;2023-07-31T13:18:11;22.60;51.50
3986;DHT22;2007;48.750;9.278;2023-07-31T13:20:39;22.60;51.50
3986;DHT22;2007;48.750;9.278;2023-07-31T13:23:09;22.50;51.50
3986;DHT22;2007;48.750;9.278;2023-07-31T13:25:37;22.60;51.50
3986;DHT22;2007;48.750;9.278;2023-07-31T13:28:05;22.60;51.60
3986;DHT22;2007;48.750;9.278;2023-07-31T13:30:33;22.60;51.50
3986;DHT22;2007;48.750;9.278;2023-07-31T13:33:02;22.50;51.50
3986;DHT22;2007;48.750;9.278;2023-07-31T13:35:31;22.50;51.50
3986;DHT22;2007;48.750;9.278;2023-07-31T13:37:59;22.60;51.60
3986;DHT22;2007;48.750;9.278;2023-07-31T13:40:28;22.60;51.50
3986;DHT22;2007;48.750;9.278;2023-07-31T13:42:56;22.60;51.60
3986;DHT22;2007;48.750;9.278;2023-07-31T13:45:24;22.60;51.60
3986;DHT22;2007;48.750;9.278;2023-07-31T13:47:52;22.50;51.50
3986;DHT22;2007;48.750;9.278;2023-07-31T13:50:20;22.60;51.60
3986;DHT22;2007;48.750;9.278;2023-07-31T13:52:49;22.60;51.60
3986;DHT22;2007;48.750;9.278;2023-07-31T13:55:17;22.60;51.60
3986;DHT22;2007;48.750;9.278;2023-07-31T13:57:46;22.60;51.60
3986;DHT22;2007;48.750;9.278;2023-07-31T14:00:15;22.60;51.60
3986;DHT22;2007;48.750;9.278;2023-07-31T14:02:43;22.60;51.60
3986;DHT22;2007;48.750;9.278;2023-07-31T14:05:11;22.60;51.60
3986;DHT22;2007;48.750;9.278;2023-07-31T14:07:39;22.60;51.60
3986;DHT22;2007;48.750;9.278;2023-07-31T14:10:08;22.50;51.50
3986;DHT22;2007;48.750;9.278;2023-07-31T14:12:37;22.60;51.60
3986;DHT22;2007;48.750;9.278;2023-07-31T14:15:10;22.60;51.60
3986;DHT22;2007;48.750;9.278;2023-07-31T14:17:38;22.60;51.60
3986;DHT22;2007;48.750;9.278;2023-07-31T14:20:08;22.60;51.60
3986;DHT22;2007;48.750;9.278;2023-07-31T14:22:38;22.60;51.60
3986;DHT22;2007;48.750;9.278;2023-07-31T14:25:06;22.60;51.60
3986;DHT22;2007;48.750;9.278;2023-07-31T14:27:37;22.60;51.60
3986;DHT22;2007;48.750;9.278;2023-07-31T14:30:07;22.60;51.60
3986;DHT22;2007;48.750;9.278;2023-07-31T14:32:36;22.50;51.60
3986;DHT22;2007;48.750;9.278;2023-07-31T14:35:05;22.60;51.60
3986;DHT22;2007;48.750;9.278;2023-07-31T14:37:37;22.60;51.60
3986;DHT22;2007;48.750;9.278;2023-07-31T14:40:07;22.60;51.60
3986;DHT22;2007;48.750;9.278;2023-07-31T14:42:35;22.60;51.60
3986;DHT22;2007;48.750;9.278;2023-07-31T14:45:04;22.60;51.60
3986;DHT22;2007;48.750;9.278;2023-07-31T14:47:32;22.60;52.30
3986;DHT22;2007;48.750;9.278;2023-07-31T14:50:03;22.60;51.60
3986;DHT22;2007;48.750;9.278;2023-07-31T14:52:31;22.60;51.60
3986;DHT22;2007;48.750;9.278;2023-07-31T14:54:59;22.60;51.60
3986;DHT22;2007;48.750;9.278;2023-07-31T14:57:27;22.60;51.60
3986;DHT22;2007;48.750;9.278;2023-07-31T14:59:55;22.60;51.70
3986;DHT22;2007;48.750;9.278;2023-07-31T15:02:23;22.60;51.60
3986;DHT22;2007;48.750;9.278;2023-07-31T15:04:53;22.60;51.60
3986;DHT22;2007;48.750;9.278;2023-07-31T15:07:22;22.60;51.60
3986;DHT22;2007;48.750;9.278;2023-07-31T15:09:50;22.60;51.60
3986;DHT22;2007;48.750;9.278;2023-07-31T15:12:18;22.60;51.60
3986;DHT22;2007;48.750;9.278;2023-07-31T15:14:47;22.60;51.60
3986;DHT22;2007;48.750;9.278;2023-07-31T15:17:15;22.60;51.60
3986;DHT22;2007;48.750;9.278;2023-07-31T15:19:43;22.60;51.60
3986;DHT22;2007;48.750;9.278;2023-07-31T15:22:11;22.60;51.60
3986;DHT22;2007;48.750;9.278;2023-07-31T15:24:40;22.60;51.60
3986;DHT22;2007;48.750;9.278;2023-07-31T15:27:08;22.60;52.30
3986;DHT22;2007;48.750;9.278;2023-07-31T15:29:36;22.60;51.60
3986;DHT22;2007;48.750;9.278;2023-07-31T15:32:05;22.60;51.60
3986;DHT22;2007;48.750;9.278;2023-07-31T15:34:33;22.60;51.60
3986;DHT22;2007;48.750;9.278;2023-07-31T15:37:01;22.60;51.60
3986;DHT22;2007;48.750;9.278;2023-07-31T15:39:29;22.60;51.70
3986;DHT22;2007;48.750;9.278;2023-07-31T15:41:59;22.60;51.60
3986;DHT22;2007;48.750;9.278;2023-07-31T15:44:27;22.60;51.60
3986;DHT22;2007;48.750;9.278;2023-07-31T15:46:55;22.60;51.60
3986;DHT22;2007;48.750;9.278;2023-07-31T15:49:23;22.60;51.60
3986;DHT22;2007;48.750;9.278;2023-07-31T15:51:50;22.60;51.70
3986;DHT22;2007;48.750;9.278;2023-07-31T15:54:18;22.60;51.60
3986;DHT22;2007;48.750;9.278;2023-07-31T15:56:46;22.60;52.30
3986;DHT22;2007;48.750;9.278;2023-07-31T15:59:16;22.60;51.60
3986;DHT22;2007;48.750;9.278;2023-07-31T16:01:44;22.60;51.60
3986;DHT22;2007;48.750;9.278;2023-07-31T16:04:11;22.60;51.60
3986;DHT22;2007;48.750;9.278;2023-07-31T16:06:40;22.60;51.60
3986;DHT22;2007;48.750;9.278;2023-07-31T16:09:08;22.60;51.60
3986;DHT22;2007;48.750;9.278;2023-07-31T16:11:36;22.60;51.60
3986;DHT22;2007;48.750;9.278;2023-07-31T16:14:05;22.60;51.60